Nbp Island — V2FH3 — position and weather

sailwx.info

Track history (hours):
 
Tides and Currents Weather Stations Pressure Air Temp Water Temp Dewpoint Dewpoint Depression Visibility Wind Speed Wind Dir Waves Ship Positions

Nbp Island

Last reported at 2015-Sep-01 14:23 UTC. Time now 2015-Sep-03 02:32 UTC.
Position N 50°33' E 000°07'.

Length 107 m; draft 8.2 m.

Type: Cargo ship. MMSI: 305674000.

Date/timePositionNaut miles runAvg speedWind from/ knotsBaromVisibWave heightAir tempDewpointWater temp
2015-Sep-01 14:23N 50°33' E 000°07'910.9
2015-Sep-01 13:33N 50°35' E 000°20'10 9.9
2015-Sep-01 12:34N 50°38' E 000°35'9 9.4
2015-Sep-01 11:33N 50°44' E 000°47'11 9.8
2015-Sep-01 10:26N 50°50' E 001°01'1011.4
2015-Sep-01 09:33N 50°57' E 001°14'1413.9
2015-Sep-01 08:33N 51°06' E 001°30'1413.5
2015-Sep-01 07:33N 51°15' E 001°46'1111.5
2015-Sep-01 06:34N 51°24' E 001°56'10 9.9
2015-Sep-01 05:32N 51°33' E 002°06'460 9.8
2015-Aug-30 06:21N 57°43' E 009°56'7 9.2
2015-Aug-30 05:34N 57°45' E 010°09'9 9.0
2015-Aug-30 04:32N 57°47' E 010°26'8 8.3
2015-Aug-30 03:34N 57°48' E 010°41'9 8.8
2015-Aug-30 02:33N 57°44' E 010°55'10 9.5
2015-Aug-30 01:34N 57°37' E 011°08'10 9.6
2015-Aug-30 00:34N 57°31' E 011°21'10 9.7
2015-Aug-29 23:34N 57°22' E 011°30'1010.3
2015-Aug-29 22:34N 57°12' E 011°36'1010.5
2015-Aug-29 21:34N 57°02' E 011°42'1010.2
2015-Aug-29 20:33N 56°53' E 011°48'9 9.3
2015-Aug-29 19:34N 56°44' E 011°51'1110.0
2015-Aug-29 18:28N 56°34' E 011°42'73 9.2
2015-Aug-29 10:30N 55°25' E 010°59'8 8.4
2015-Aug-29 09:33N 55°17' E 011°04'19 8.8
2015-Aug-29 07:22N 54°58' E 010°60'18 8.3
2015-Aug-29 05:15N 54°41' E 010°57'6 9.3
2015-Aug-29 04:34N 54°38' E 011°07'8 8.4
2015-Aug-29 03:33N 54°34' E 011°19'8 8.5
2015-Aug-29 02:33N 54°30' E 011°33'9 8.8
2015-Aug-29 01:33N 54°27' E 011°47'9 8.8
2015-Aug-29 00:33N 54°27' E 012°02'27 8.6
2015-Aug-28 21:25N 54°45' E 012°36'19 9.4
2015-Aug-28 19:26N 54°53' E 013°06'18 9.6
2015-Aug-28 17:34N 54°59' E 013°35'10 9.5
2015-Aug-28 16:33N 55°02' E 013°51'9 9.3
2015-Aug-28 15:34N 55°06' E 014°06'9 9.3
2015-Aug-28 14:34N 55°13' E 014°16'9 9.4
2015-Aug-28 13:34N 55°20' E 014°27'9 9.5
2015-Aug-28 12:34N 55°27' E 014°38'10 9.8
2015-Aug-28 11:34N 55°32' E 014°53'10 9.7
2015-Aug-28 10:34N 55°37' E 015°08'101 9.1
2015-Aug-27 23:27N 56°50' E 017°12'8 9.4
2015-Aug-27 22:34N 56°58' E 017°17'9 9.5
2015-Aug-27 21:33N 57°07' E 017°23'9 9.2
2015-Aug-27 20:33N 57°15' E 017°30'9 9.1
2015-Aug-27 19:33N 57°24' E 017°36'9 9.0
2015-Aug-27 18:34N 57°32' E 017°44'9 9.1
2015-Aug-27 17:34N 57°40' E 017°51'40 9.2
2015-Aug-27 13:11N 58°16' E 018°26'16 9.6
2015-Aug-27 11:32N 58°29' E 018°42'  
Track history (hours):
 
Tides and Currents Weather Stations Pressure Air Temp Water Temp Dewpoint Dewpoint Depression Visibility Wind Speed Wind Dir Waves Ship Positions

Nbp Island

Last reported at 2015-Sep-01 14:23 UTC. Time now 2015-Sep-03 02:32 UTC.
Position N 50°33' E 000°07'.

Length 107 m; draft 8.2 m.

Type: Cargo ship. MMSI: 305674000.

Date/timePositionNaut miles runAvg speedWind from/ knotsBaromVisibWave heightAir tempDewpointWater temp
2015-Sep-01 14:23N 50°33' E 000°07'910.9
2015-Sep-01 13:33N 50°35' E 000°20'10 9.9
2015-Sep-01 12:34N 50°38' E 000°35'9 9.4
2015-Sep-01 11:33N 50°44' E 000°47'11 9.8
2015-Sep-01 10:26N 50°50' E 001°01'1011.4
2015-Sep-01 09:33N 50°57' E 001°14'1413.9
2015-Sep-01 08:33N 51°06' E 001°30'1413.5
2015-Sep-01 07:33N 51°15' E 001°46'1111.5
2015-Sep-01 06:34N 51°24' E 001°56'10 9.9
2015-Sep-01 05:32N 51°33' E 002°06'460 9.8
2015-Aug-30 06:21N 57°43' E 009°56'7 9.2
2015-Aug-30 05:34N 57°45' E 010°09'9 9.0
2015-Aug-30 04:32N 57°47' E 010°26'8 8.3
2015-Aug-30 03:34N 57°48' E 010°41'9 8.8
2015-Aug-30 02:33N 57°44' E 010°55'10 9.5
2015-Aug-30 01:34N 57°37' E 011°08'10 9.6
2015-Aug-30 00:34N 57°31' E 011°21'10 9.7
2015-Aug-29 23:34N 57°22' E 011°30'1010.3
2015-Aug-29 22:34N 57°12' E 011°36'1010.5
2015-Aug-29 21:34N 57°02' E 011°42'1010.2
2015-Aug-29 20:33N 56°53' E 011°48'9 9.3
2015-Aug-29 19:34N 56°44' E 011°51'1110.0
2015-Aug-29 18:28N 56°34' E 011°42'73 9.2
2015-Aug-29 10:30N 55°25' E 010°59'8 8.4
2015-Aug-29 09:33N 55°17' E 011°04'19 8.8
2015-Aug-29 07:22N 54°58' E 010°60'18 8.3
2015-Aug-29 05:15N 54°41' E 010°57'6 9.3
2015-Aug-29 04:34N 54°38' E 011°07'8 8.4
2015-Aug-29 03:33N 54°34' E 011°19'8 8.5
2015-Aug-29 02:33N 54°30' E 011°33'9 8.8
2015-Aug-29 01:33N 54°27' E 011°47'9 8.8
2015-Aug-29 00:33N 54°27' E 012°02'27 8.6
2015-Aug-28 21:25N 54°45' E 012°36'19 9.4
2015-Aug-28 19:26N 54°53' E 013°06'18 9.6
2015-Aug-28 17:34N 54°59' E 013°35'10 9.5
2015-Aug-28 16:33N 55°02' E 013°51'9 9.3
2015-Aug-28 15:34N 55°06' E 014°06'9 9.3
2015-Aug-28 14:34N 55°13' E 014°16'9 9.4
2015-Aug-28 13:34N 55°20' E 014°27'9 9.5
2015-Aug-28 12:34N 55°27' E 014°38'10 9.8
2015-Aug-28 11:34N 55°32' E 014°53'10 9.7
2015-Aug-28 10:34N 55°37' E 015°08'101 9.1
2015-Aug-27 23:27N 56°50' E 017°12'8 9.4
2015-Aug-27 22:34N 56°58' E 017°17'9 9.5
2015-Aug-27 21:33N 57°07' E 017°23'9 9.2
2015-Aug-27 20:33N 57°15' E 017°30'9 9.1
2015-Aug-27 19:33N 57°24' E 017°36'9 9.0
2015-Aug-27 18:34N 57°32' E 017°44'9 9.1
2015-Aug-27 17:34N 57°40' E 017°51'40 9.2
2015-Aug-27 13:11N 58°16' E 018°26'16 9.6
2015-Aug-27 11:32N 58°29' E 018°42'  

Dump ship's entire track history